createdAt,value
2018-07-21T08:39:32.665Z,8.07
2018-07-21T08:42:01.162Z,7.37
2018-07-21T08:44:29.661Z,7.60
2018-07-21T08:46:58.414Z,7.50
2018-07-21T08:49:27.053Z,7.50
2018-07-21T08:51:55.810Z,7.40
2018-07-21T08:54:24.354Z,6.60
2018-07-21T08:56:52.674Z,6.83
2018-07-21T08:59:21.287Z,7.40
2018-07-21T09:01:50.274Z,6.73
2018-07-21T09:04:18.500Z,6.70
2018-07-21T09:06:47.009Z,5.83
2018-07-21T09:18:57.759Z,5.93
2018-07-21T09:21:26.249Z,5.30
2018-07-21T09:23:55.689Z,5.73
2018-07-21T09:26:24.101Z,5.70
2018-07-21T09:28:52.589Z,5.80
2018-07-21T09:31:21.125Z,5.83
2018-07-21T09:33:49.324Z,5.17
2018-07-21T09:36:17.877Z,6.13
2018-07-21T09:38:46.162Z,5.43
2018-07-21T09:49:10.653Z,6.92
2018-07-21T09:51:39.136Z,5.60
2018-07-21T09:54:07.668Z,6.00
2018-07-21T09:56:36.259Z,6.10
2018-07-21T09:59:04.782Z,6.80
2018-07-21T10:01:33.366Z,6.80
2018-07-21T10:04:01.880Z,6.60
2018-07-21T10:06:30.358Z,7.33
2018-07-21T10:08:58.862Z,7.40
2018-07-21T10:11:28.011Z,7.47
2018-07-21T10:13:56.714Z,7.13
2018-07-21T10:16:25.230Z,7.50
2018-07-21T10:18:53.767Z,7.13
2018-07-21T10:21:22.323Z,6.52
2018-07-21T10:23:50.833Z,6.40
2018-07-21T10:26:24.612Z,8.20
2018-07-21T10:28:58.554Z,6.30
2018-07-21T10:31:27.113Z,6.30
2018-07-21T10:33:55.739Z,5.70
2018-07-21T10:36:24.369Z,5.83
2018-07-21T10:38:52.938Z,5.60
2018-07-21T10:41:22.106Z,5.90
2018-07-21T10:43:50.603Z,5.90
2018-07-21T10:46:19.124Z,4.40
2018-07-21T10:48:47.673Z,5.53
2018-07-21T10:51:17.370Z,4.90
2018-07-21T10:53:46.142Z,5.13
2018-07-21T11:14:21.132Z,5.42
2018-07-21T11:16:49.686Z,4.73
2018-07-21T11:19:17.862Z,5.30
2018-07-21T11:21:46.409Z,5.40
2018-07-21T11:41:27.792Z,5.67
2018-07-21T11:43:56.766Z,5.93
2018-07-21T11:46:25.270Z,5.08
2018-07-21T11:48:53.781Z,5.00
2018-07-21T11:51:22.265Z,6.20
2018-07-21T11:53:50.728Z,6.30
2018-07-21T11:56:19.241Z,6.00
2018-07-21T11:58:47.759Z,6.43
2018-07-21T12:12:04.910Z,5.40
2018-07-21T12:14:33.452Z,4.90
2018-07-21T12:17:02.837Z,4.60
2018-07-21T12:19:31.474Z,4.30
2018-07-21T12:22:00.262Z,5.07
2018-07-21T12:24:28.790Z,4.60
2018-07-21T12:26:57.388Z,5.40
2018-07-21T12:29:26.080Z,4.70
2018-07-21T12:31:54.306Z,4.77
2018-07-21T12:34:22.998Z,5.50
2018-07-21T12:36:51.621Z,4.50
2018-07-21T12:39:20.326Z,5.03
2018-07-21T12:41:49.147Z,5.53
2018-07-21T12:44:18.025Z,5.80
2018-07-21T12:46:47.066Z,10.30
2018-07-21T12:57:30.612Z,5.90
2018-07-21T12:59:59.292Z,6.07
2018-07-21T13:02:27.993Z,6.23
2018-07-21T13:04:58.799Z,6.43
2018-07-21T13:07:27.726Z,5.85
2018-07-21T13:09:56.446Z,6.00
2018-07-21T13:12:24.684Z,6.10
2018-07-21T13:14:53.259Z,6.13
2018-07-21T13:17:21.866Z,6.27
2018-07-21T13:19:50.648Z,5.60
2018-07-21T13:22:19.364Z,5.87
2018-07-21T13:24:48.037Z,6.20
2018-07-21T13:27:17.629Z,6.55
2018-07-21T13:29:46.196Z,5.93
2018-07-21T13:42:49.357Z,5.80
2018-07-21T13:45:18.762Z,9.73
2018-07-21T13:47:48.184Z,6.43
2018-07-21T13:50:17.542Z,5.75
2018-07-21T13:52:46.130Z,5.20
2018-07-21T14:03:05.793Z,6.00
2018-07-21T14:15:29.362Z,5.40
2018-07-21T14:17:57.933Z,5.30
2018-07-21T14:20:26.650Z,5.65
2018-07-21T14:22:55.268Z,5.80
2018-07-21T14:25:23.920Z,5.40
2018-07-21T14:27:52.505Z,5.10
2018-07-21T14:30:21.092Z,5.20
2018-07-21T14:32:49.682Z,5.33
2018-07-21T14:35:18.186Z,4.83
2018-07-21T14:37:46.730Z,5.10
2018-07-21T14:48:26.558Z,5.95
2018-07-21T14:50:55.691Z,4.97
2018-07-21T14:53:24.550Z,5.70
2018-07-21T14:55:53.145Z,6.37
2018-07-21T14:58:21.681Z,6.50
2018-07-21T15:00:50.254Z,5.50
2018-07-21T15:03:18.840Z,5.50
2018-07-21T15:05:47.386Z,5.40
2018-07-21T15:08:17.488Z,5.62
2018-07-21T15:10:46.157Z,5.23
2018-07-21T15:31:47.322Z,5.47
2018-07-21T15:34:24.687Z,4.07
2018-07-21T15:36:53.296Z,4.10
2018-07-21T15:39:21.801Z,3.50
2018-07-21T15:41:50.328Z,3.70
2018-07-21T15:44:18.878Z,4.00
2018-07-21T15:46:47.374Z,3.33
2018-07-21T15:49:17.608Z,4.03
2018-07-21T15:51:46.867Z,3.87
2018-07-21T16:13:03.205Z,4.25
2018-07-21T16:15:32.503Z,10.83
2018-07-21T16:18:01.056Z,5.83
2018-07-21T16:20:29.668Z,13.73
2018-07-21T16:22:58.171Z,16.00
2018-07-21T16:25:26.729Z,8.57
2018-07-21T16:27:55.389Z,7.47
2018-07-21T16:30:23.940Z,9.30
2018-07-21T16:32:56.343Z,6.90
2018-07-21T16:35:25.304Z,20.93
2018-07-21T16:37:53.853Z,17.93
2018-07-21T16:40:22.033Z,7.30
2018-07-21T16:42:50.573Z,6.87
2018-07-21T16:45:19.081Z,6.93
2018-07-21T16:47:47.366Z,6.23
2018-07-21T16:58:25.575Z,6.35
2018-07-21T17:00:54.574Z,6.97
2018-07-21T17:03:23.131Z,6.87
2018-07-21T17:05:51.793Z,6.90
2018-07-21T17:08:20.574Z,7.10
2018-07-21T17:10:48.766Z,6.50
2018-07-21T17:13:17.385Z,6.10
2018-07-21T17:15:45.918Z,6.77
2018-07-21T17:31:49.613Z,6.90
2018-07-21T17:34:18.193Z,7.90
2018-07-21T17:36:47.388Z,8.30
2018-07-21T17:39:17.477Z,7.10
2018-07-21T17:41:46.138Z,6.73
2018-07-21T17:52:49.951Z,6.87
2018-07-21T17:55:18.815Z,6.87
2018-07-21T17:57:47.466Z,6.13
2018-07-21T18:07:58.584Z,6.40
2018-07-21T18:10:27.789Z,6.30
2018-07-21T18:12:56.392Z,7.30
2018-07-21T18:15:25.159Z,7.63
2018-07-21T18:17:53.763Z,8.20
2018-07-21T18:20:22.259Z,6.36
2018-07-21T18:22:50.923Z,6.63
2018-07-21T18:25:19.623Z,7.28
2018-07-21T18:27:48.306Z,7.10
2018-07-21T18:30:17.997Z,7.60
2018-07-21T18:32:46.514Z,8.20
2018-07-21T18:52:49.038Z,7.67
2018-07-21T18:55:18.890Z,7.90
2018-07-21T18:57:47.563Z,7.60
2018-07-21T19:00:18.085Z,8.58
2018-07-21T19:02:46.670Z,9.10
2018-07-21T19:13:27.542Z,9.05
2018-07-21T19:16:01.385Z,9.10
2018-07-21T19:18:29.969Z,10.50
2018-07-21T19:21:04.970Z,10.10
2018-07-21T19:23:33.486Z,10.90
2018-07-21T19:26:07.382Z,10.87
2018-07-21T19:28:36.404Z,10.47
2018-07-21T19:31:05.300Z,10.13
2018-07-21T19:33:34.071Z,10.38
2018-07-21T19:36:02.862Z,9.33
2018-07-21T19:38:31.611Z,9.90
2018-07-21T19:41:04.520Z,9.60
2018-07-21T19:43:33.058Z,10.13
2018-07-21T19:46:01.623Z,10.60
2018-07-21T19:48:30.617Z,9.73
2018-07-21T19:50:59.144Z,8.50
2018-07-21T19:53:27.653Z,8.60
2018-07-21T19:55:56.182Z,9.43
2018-07-21T19:58:24.675Z,8.77
2018-07-21T20:00:53.955Z,8.37
2018-07-21T20:03:22.589Z,8.90
2018-07-21T20:05:51.216Z,8.53
2018-07-21T20:08:19.860Z,8.80
2018-07-21T20:10:48.713Z,7.28
2018-07-21T20:13:18.634Z,7.72
2018-07-21T20:15:47.301Z,8.43
2018-07-21T20:18:17.610Z,7.97
2018-07-21T20:20:46.187Z,8.50
2018-07-21T20:43:05.053Z,7.40
2018-07-21T20:45:33.601Z,7.93
2018-07-21T20:48:02.121Z,9.37
2018-07-21T20:50:30.666Z,8.93
2018-07-21T20:52:59.186Z,8.87
2018-07-21T20:55:28.095Z,8.20
2018-07-21T20:58:00.633Z,8.90
2018-07-21T21:00:29.387Z,10.00
2018-07-21T21:02:57.850Z,9.70
2018-07-21T21:05:29.374Z,10.30
2018-07-21T21:07:58.070Z,10.93
2018-07-21T21:10:26.647Z,11.30
2018-07-21T21:12:55.205Z,11.30
2018-07-21T21:15:23.709Z,12.87
2018-07-21T21:17:52.250Z,14.47
2018-07-21T21:20:20.994Z,14.33
2018-07-21T21:22:50.849Z,15.15
2018-07-21T21:25:19.544Z,15.38
2018-07-21T21:27:48.422Z,16.23
2018-07-21T21:30:18.117Z,15.68
2018-07-21T21:32:47.293Z,17.00
2018-07-21T21:35:18.685Z,14.68
2018-07-21T21:37:46.866Z,14.20
2018-07-21T21:46:35.813Z,18.60
2018-07-21T21:49:04.344Z,16.30
2018-07-21T21:51:33.119Z,15.33
2018-07-21T21:54:01.743Z,17.20
2018-07-21T21:56:30.519Z,15.90
2018-07-21T21:58:58.989Z,16.33
2018-07-21T22:01:27.772Z,16.63
2018-07-21T22:03:56.282Z,16.97
2018-07-21T22:06:24.778Z,18.20
2018-07-21T22:08:53.391Z,18.00
2018-07-21T22:11:21.913Z,16.40
2018-07-21T22:13:50.459Z,13.72
2018-07-21T22:16:19.019Z,14.00
2018-07-21T22:18:47.590Z,15.23
2018-07-21T22:21:17.455Z,16.05
2018-07-21T22:23:45.686Z,16.27
2018-07-21T22:41:29.610Z,16.33
2018-07-21T22:43:58.271Z,18.23
2018-07-21T22:46:26.777Z,18.80
2018-07-21T22:48:55.942Z,19.00
2018-07-21T22:51:24.462Z,19.20
2018-07-21T22:53:52.974Z,19.17
2018-07-21T22:56:21.560Z,18.10
2018-07-21T22:58:50.230Z,17.37
2018-07-21T23:01:19.130Z,16.70
2018-07-21T23:03:47.887Z,17.43
2018-07-21T23:06:16.471Z,16.60
2018-07-21T23:08:44.949Z,17.80
2018-07-21T23:11:13.485Z,18.10
2018-07-21T23:13:41.970Z,19.83
2018-07-21T23:16:10.454Z,19.10
2018-07-21T23:18:38.994Z,20.07
2018-07-21T23:21:07.536Z,20.15
2018-07-21T23:23:36.110Z,19.73
2018-07-21T23:26:04.723Z,21.70
2018-07-21T23:28:33.433Z,22.98
2018-07-21T23:31:02.113Z,23.60
2018-07-21T23:33:31.121Z,23.07
2018-07-21T23:35:59.594Z,26.03
2018-07-21T23:38:28.070Z,26.40
2018-07-21T23:40:56.590Z,26.73
2018-07-21T23:43:25.071Z,25.88
2018-07-21T23:45:53.558Z,26.70
2018-07-21T23:48:22.110Z,25.23
2018-07-21T23:50:50.620Z,26.93
2018-07-21T23:53:19.116Z,26.05
2018-07-21T23:55:47.661Z,25.23
2018-07-21T23:58:16.274Z,24.75
